Sea Voyager — V7QU2 — position and weather

sailwx.info

Track history (hours):
 
Tides and Currents Weather Stations Pressure Air Temp Water Temp Dewpoint Dewpoint Depression Visibility Wind Speed Wind Dir Waves Ship Positions

Sea Voyager

Last reported at 2015-Jul-01 05:25 UTC. Time now 2015-Jul-01 23:13 UTC.
Position N 01°16' E 103°36'.

Length 243 m; draft 9.9 m.

Type: Ship (hazmat cat A). MMSI: 538003439.

Date/timePositionNaut miles runAvg speedWind from/ knotsBaromVisibWave heightAir tempDewpointWater temp
2015-Jul-01 05:25N 01°16' E 103°36'1 1.4
2015-Jul-01 04:30N 01°15' E 103°36'5 4.7
2015-Jul-01 03:29N 01°12' E 103°40'3 0.8
2015-Jun-30 23:23N 01°14' E 103°42'4 4.4
2015-Jun-30 22:33N 01°18' E 103°43'0 0.1
2015-Jun-30 21:30N 01°18' E 103°43'0 0.0
2015-Jun-30 20:32N 01°18' E 103°43'0 0.0
2015-Jun-30 19:14N 01°18' E 103°43'0 0.0
2015-Jun-30 18:20N 01°18' E 103°43'0 0.0
2015-Jun-30 17:32N 01°18' E 103°43'0 0.0
2015-Jun-30 15:32N 01°18' E 103°43'0 0.0
2015-Jun-30 14:14N 01°18' E 103°43'0 0.0
2015-Jun-30 13:32N 01°18' E 103°43'0 0.0
2015-Jun-30 12:26N 01°18' E 103°43'0 0.0
2015-Jun-30 10:14N 01°18' E 103°43'0 0.0
2015-Jun-30 04:29N 01°18' E 103°43'0 0.0
2015-Jun-30 03:20N 01°18' E 103°43'0 0.0
2015-Jun-30 02:32N 01°18' E 103°43'0 0.0
2015-Jun-30 01:23N 01°18' E 103°43'0 0.0
2015-Jun-30 00:26N 01°18' E 103°43'0 0.0
2015-Jun-29 23:26N 01°18' E 103°43'0 0.0
2015-Jun-29 22:23N 01°18' E 103°43'0 0.0
2015-Jun-29 21:26N 01°18' E 103°43'0 0.0
2015-Jun-29 20:08N 01°18' E 103°43'0 0.0
2015-Jun-29 19:32N 01°18' E 103°43'0 0.0
2015-Jun-29 16:32N 01°18' E 103°43'0 0.0
2015-Jun-29 15:20N 01°18' E 103°43'0 0.0
2015-Jun-29 14:32N 01°18' E 103°43'0 0.0
2015-Jun-29 13:29N 01°18' E 103°43'0 0.3
2015-Jun-29 12:33N 01°18' E 103°43'4 3.6
2015-Jun-29 11:33N 01°14' E 103°43'3 1.4
2015-Jun-29 09:13N 01°12' E 103°40'2 2.7
2015-Jun-29 08:26N 01°11' E 103°41'910.5
2015-Jun-29 07:33N 01°12' E 103°50'1313.1
2015-Jun-29 06:33N 01°16' E 104°03'  
2015-Jun-24 04:29N 01°16' E 104°09'1112.2
2015-Jun-24 03:33N 01°14' E 103°58'21 6.7
2015-Jun-24 00:28N 01°11' E 103°38'8 9.0
2015-Jun-23 23:33N 01°09' E 103°46'1010.5
2015-Jun-23 22:33N 01°14' E 103°55'1111.0
2015-Jun-23 21:33N 01°16' E 104°06'  
Track history (hours):
 
Tides and Currents Weather Stations Pressure Air Temp Water Temp Dewpoint Dewpoint Depression Visibility Wind Speed Wind Dir Waves Ship Positions

Sea Voyager

Last reported at 2015-Jul-01 05:25 UTC. Time now 2015-Jul-01 23:13 UTC.
Position N 01°16' E 103°36'.

Length 243 m; draft 9.9 m.

Type: Ship (hazmat cat A). MMSI: 538003439.

Date/timePositionNaut miles runAvg speedWind from/ knotsBaromVisibWave heightAir tempDewpointWater temp
2015-Jul-01 05:25N 01°16' E 103°36'1 1.4
2015-Jul-01 04:30N 01°15' E 103°36'5 4.7
2015-Jul-01 03:29N 01°12' E 103°40'3 0.8
2015-Jun-30 23:23N 01°14' E 103°42'4 4.4
2015-Jun-30 22:33N 01°18' E 103°43'0 0.1
2015-Jun-30 21:30N 01°18' E 103°43'0 0.0
2015-Jun-30 20:32N 01°18' E 103°43'0 0.0
2015-Jun-30 19:14N 01°18' E 103°43'0 0.0
2015-Jun-30 18:20N 01°18' E 103°43'0 0.0
2015-Jun-30 17:32N 01°18' E 103°43'0 0.0
2015-Jun-30 15:32N 01°18' E 103°43'0 0.0
2015-Jun-30 14:14N 01°18' E 103°43'0 0.0
2015-Jun-30 13:32N 01°18' E 103°43'0 0.0
2015-Jun-30 12:26N 01°18' E 103°43'0 0.0
2015-Jun-30 10:14N 01°18' E 103°43'0 0.0
2015-Jun-30 04:29N 01°18' E 103°43'0 0.0
2015-Jun-30 03:20N 01°18' E 103°43'0 0.0
2015-Jun-30 02:32N 01°18' E 103°43'0 0.0
2015-Jun-30 01:23N 01°18' E 103°43'0 0.0
2015-Jun-30 00:26N 01°18' E 103°43'0 0.0
2015-Jun-29 23:26N 01°18' E 103°43'0 0.0
2015-Jun-29 22:23N 01°18' E 103°43'0 0.0
2015-Jun-29 21:26N 01°18' E 103°43'0 0.0
2015-Jun-29 20:08N 01°18' E 103°43'0 0.0
2015-Jun-29 19:32N 01°18' E 103°43'0 0.0
2015-Jun-29 16:32N 01°18' E 103°43'0 0.0
2015-Jun-29 15:20N 01°18' E 103°43'0 0.0
2015-Jun-29 14:32N 01°18' E 103°43'0 0.0
2015-Jun-29 13:29N 01°18' E 103°43'0 0.3
2015-Jun-29 12:33N 01°18' E 103°43'4 3.6
2015-Jun-29 11:33N 01°14' E 103°43'3 1.4
2015-Jun-29 09:13N 01°12' E 103°40'2 2.7
2015-Jun-29 08:26N 01°11' E 103°41'910.5
2015-Jun-29 07:33N 01°12' E 103°50'1313.1
2015-Jun-29 06:33N 01°16' E 104°03'  
2015-Jun-24 04:29N 01°16' E 104°09'1112.2
2015-Jun-24 03:33N 01°14' E 103°58'21 6.7
2015-Jun-24 00:28N 01°11' E 103°38'8 9.0
2015-Jun-23 23:33N 01°09' E 103°46'1010.5
2015-Jun-23 22:33N 01°14' E 103°55'1111.0
2015-Jun-23 21:33N 01°16' E 104°06'  

Dump ship's entire track history